Time;durP1;ratioP1;P1;durP2;ratioP2;P2;SDS_P1;SDS_P2;PMS_P1;PMS_P2;Temp;Humidity;BMP_temperature;BMP_pressure;BME280_temperature;BME280_humidity;BME280_pressure;Samples;Min_cycle;Max_cycle;Signal;HPM_P1;HPM_P2
2023/01/17 00:02:10;;;;;;;0.27;0.10;;;10.40;99.90;;;9.72;57.52;97920.47;4904671;28;98808;-56
2023/01/17 00:10:28;;;;;;;0.00;0.00;;;10.00;99.90;;;9.20;56.54;97932.19;4904634;28;97176;-56
2023/01/17 00:12:57;;;;;;;0.00;0.00;;;9.80;99.90;;;9.16;55.22;97936.00;4907578;28;97211;-55
2023/01/17 00:15:25;;;;;;;0.17;0.17;;;9.80;99.90;;;9.22;56.30;97943.44;4910022;28;99991;-58
2023/01/17 00:17:52;;;;;;;0.47;0.10;;;9.80;99.90;;;9.44;56.64;97939.25;4906038;28;98010;-56
2023/01/17 00:26:25;;;;;;;0.00;0.00;;;9.90;99.90;;;9.20;55.47;97947.13;4875624;28;97811;-53
2023/01/17 01:35:53;;;;;;;0.00;0.00;;;9.90;99.90;;;9.61;53.11;98045.91;4950987;28;97454;-55
2023/01/17 01:38:22;;;;;;;0.57;0.40;;;10.10;99.90;;;9.77;55.05;98062.25;4934140;28;97153;-55
2023/01/17 01:40:53;;;;;;;1.50;0.20;;;10.20;99.90;;;9.81;54.78;98063.69;4951752;28;97283;-54
2023/01/17 01:43:45;;;;;;;0.93;0.27;;;10.20;99.90;;;9.76;53.05;98066.66;4933635;28;97390;-56
2023/01/17 01:46:19;;;;;;;0.10;0.10;;;10.20;99.90;;;9.51;54.15;98072.03;4959184;28;103143;-54
2023/01/17 01:48:51;;;;;;;0.30;0.20;;;10.00;99.90;;;9.91;56.28;98079.66;4952632;28;97417;-54
2023/01/17 01:51:28;;;;;;;0.20;0.10;;;10.20;99.90;;;9.31;53.75;98086.63;4957078;28;97512;-50
2023/01/17 01:54:06;;;;;;;0.63;0.10;;;9.90;99.90;;;8.96;55.64;98099.59;4936858;28;98094;-54
2023/01/17 01:56:33;;;;;;;0.57;0.40;;;9.60;99.90;;;8.57;58.25;98090.03;4934451;28;97675;-52
2023/01/17 01:59:03;;;;;;;0.60;0.30;;;9.10;99.90;;;8.39;57.72;98107.91;4948436;28;96677;-51
2023/01/17 02:01:30;;;;;;;0.33;0.33;;;9.00;99.90;;;8.78;56.32;98099.06;4944142;28;97496;-56
2023/01/17 02:03:56;;;;;;;0.10;0.10;;;9.30;99.90;;;8.71;55.87;98112.75;4942936;28;97479;-54
2023/01/17 02:06:34;;;;;;;0.20;0.13;;;9.20;99.90;;;8.47;55.56;98112.63;4952954;28;98993;-54
2023/01/17 02:09:07;;;;;;;0.30;0.20;;;9.10;99.90;;;8.76;60.68;98131.66;4953526;28;97352;-56
2023/01/17 02:11:36;;;;;;;0.30;0.30;;;9.20;99.90;;;8.88;55.17;98130.84;4940813;28;97335;-54
2023/01/17 02:14:03;;;;;;;0.10;0.10;;;9.40;99.90;;;9.03;57.07;98123.69;4936712;28;99492;-55
2023/01/17 02:16:49;;;;;;;0.00;0.00;;;9.50;99.90;;;8.97;54.65;98140.72;4952424;28;98436;-56
2023/01/17 02:19:27;;;;;;;0.13;0.13;;;9.50;99.90;;;8.86;55.81;98144.09;4936700;28;97386;-51
2023/01/17 02:22:27;;;;;;;0.33;0.30;;;9.40;99.90;;;8.47;54.39;98147.59;4959967;28;98509;-51
2023/01/17 02:25:19;;;;;;;1.50;0.50;;;9.20;99.90;;;8.83;61.70;98154.81;4935981;28;97212;-53
2023/01/17 02:28:36;;;;;;;0.23;0.23;;;9.20;99.90;;;8.71;55.70;98168.78;4954252;28;97341;-62
2023/01/17 02:31:55;;;;;;;0.10;0.10;;;9.30;99.90;;;8.71;53.88;98165.31;4933155;28;97394;-55
2023/01/17 02:34:50;;;;;;;1.63;0.30;;;9.30;99.90;;;8.74;56.50;98175.63;4904129;28;97472;-56
2023/01/17 02:37:38;;;;;;;0.50;0.30;;;9.20;99.90;;;8.39;54.14;98181.44;4957596;28;101838;-55
2023/01/17 02:40:13;;;;;;;3.10;0.73;;;9.10;99.90;;;8.41;55.02;98176.91;4944560;28;98493;-56
2023/01/17 02:42:51;;;;;;;0.73;0.10;;;9.00;99.90;;;8.22;55.57;98179.84;4970132;28;97308;-52
2023/01/17 02:45:18;;;;;;;0.03;0.03;;;8.90;99.90;;;8.17;54.96;98175.84;4940867;28;97283;-54
2023/01/17 02:47:44;;;;;;;0.10;0.00;;;8.80;99.90;;;7.97;57.30;98179.78;4959747;28;98831;-56
2023/01/17 02:50:20;;;;;;;0.00;0.00;;;8.60;99.90;;;8.12;55.59;98191.06;4942584;28;102828;-55
2023/01/17 02:53:36;;;;;;;2.80;0.20;;;8.60;99.90;;;8.30;53.96;98192.50;4953319;28;97245;-61
2023/01/17 02:56:32;;;;;;;0.20;0.17;;;8.90;99.90;;;7.84;54.97;98190.22;4950557;28;97478;-56
2023/01/17 02:59:32;;;;;;;0.30;0.30;;;8.50;99.90;;;7.84;55.39;98199.88;4956783;28;97504;-56
2023/01/17 03:02:20;;;;;;;0.80;0.07;;;8.50;99.90;;;7.74;56.00;98194.34;4961294;28;96702;-56
2023/01/17 03:04:54;;;;;;;1.63;0.50;;;8.40;99.90;;;7.78;56.12;98201.09;4941253;28;96995;-62
2023/01/17 03:07:25;;;;;;;0.20;0.10;;;8.40;99.90;;;8.00;57.15;98211.91;4948955;28;97262;-55
2023/01/17 03:09:58;;;;;;;0.50;0.30;;;8.40;99.90;;;8.24;55.16;98206.00;4954088;28;97249;-56
2023/01/17 03:12:37;;;;;;;0.10;0.10;;;8.70;99.90;;;8.18;55.50;98203.78;4966540;28;99150;-56
2023/01/17 03:15:08;;;;;;;0.40;0.20;;;8.70;99.90;;;8.56;57.60;98210.06;4949021;28;96927;-56
2023/01/17 03:17:34;;;;;;;0.30;0.30;;;8.90;99.90;;;8.92;60.28;98206.75;4969054;28;97365;-56
2023/01/17 03:20:00;;;;;;;0.20;0.20;;;9.30;99.90;;;9.15;59.55;98218.34;4936171;28;109670;-56
2023/01/17 03:22:26;;;;;;;0.47;0.30;;;9.50;99.90;;;9.48;56.45;98214.34;4959918;28;115382;-56
2023/01/17 03:24:52;;;;;;;0.30;0.30;;;9.80;99.90;;;9.62;53.95;98214.22;4956089;28;97054;-57
2023/01/17 03:27:17;;;;;;;0.70;0.47;;;10.10;99.90;;;9.64;54.22;98212.31;4934865;28;99334;-56
2023/01/17 03:29:43;;;;;;;0.47;0.30;;;10.10;99.90;;;9.32;52.67;98218.97;4959278;28;104509;-57
2023/01/17 03:32:09;;;;;;;0.47;0.47;;;9.80;99.90;;;9.67;56.07;98219.97;4954652;28;97227;-56
2023/01/17 03:34:34;;;;;;;0.43;0.37;;;10.00;99.90;;;9.72;53.68;98228.41;4961163;28;97247;-56
2023/01/17 03:37:00;;;;;;;0.20;0.20;;;10.10;99.90;;;10.02;53.90;98224.56;4957953;28;97068;-56
2023/01/17 03:39:26;;;;;;;0.30;0.20;;;10.30;99.90;;;9.92;51.72;98234.06;4951930;28;98489;-53
2023/01/17 03:41:52;;;;;;;0.30;0.30;;;10.30;99.90;;;9.99;52.16;98238.78;4953835;28;97146;-56
2023/01/17 03:44:17;;;;;;;0.20;0.20;;;10.30;99.90;;;9.95;54.39;98239.09;4960505;28;97005;-56
2023/01/17 03:46:43;;;;;;;0.27;0.27;;;10.20;99.90;;;9.93;53.68;98235.72;4945264;28;98494;-55
2023/01/17 03:49:10;;;;;;;0.47;0.47;;;10.20;99.90;;;10.03;55.22;98236.75;4954347;28;101722;-56
2023/01/17 03:51:35;;;;;;;0.83;0.47;;;10.20;99.90;;;10.14;52.06;98250.03;4960729;28;101516;-52
2023/01/17 03:54:01;;;;;;;0.83;0.50;;;10.40;99.90;;;10.02;52.71;98241.19;4957065;28;97203;-55
2023/01/17 03:56:27;;;;;;;1.23;0.57;;;10.40;99.90;;;10.03;53.83;98242.03;4954212;28;97001;-56
2023/01/17 03:58:52;;;;;;;0.50;0.50;;;10.40;99.90;;;9.90;51.37;98251.75;4957996;28;97640;-56
2023/01/17 04:01:18;;;;;;;0.70;0.70;;;10.30;99.90;;;9.95;52.03;98261.00;4960856;28;97435;-56
2023/01/17 04:03:44;;;;;;;1.13;0.73;;;10.20;99.90;;;9.61;51.05;98252.00;4961749;28;99062;-55
2023/01/17 04:06:10;;;;;;;0.73;0.57;;;10.10;99.90;;;9.70;51.11;98251.38;4953018;28;98647;-55
2023/01/17 04:08:36;;;;;;;2.13;0.80;;;10.10;99.90;;;9.66;54.45;98249.88;4951606;28;97765;-55
2023/01/17 04:11:01;;;;;;;1.90;0.70;;;9.90;99.90;;;9.37;57.01;98264.22;4954974;28;96991;-55
2023/01/17 04:13:27;;;;;;;2.47;1.07;;;9.70;99.90;;;9.61;50.85;98251.16;4956563;28;102174;-55
2023/01/17 04:15:53;;;;;;;1.20;0.90;;;9.90;99.90;;;9.83;52.77;98262.69;4947203;28;96968;-55
2023/01/17 04:18:21;;;;;;;1.40;0.47;;;10.10;99.90;;;10.06;57.59;98268.16;4951520;28;97255;-55
2023/01/17 04:20:47;;;;;;;1.00;0.73;;;10.20;99.90;;;10.21;54.11;98267.09;4936721;28;97356;-58
2023/01/17 04:23:13;;;;;;;1.03;0.80;;;10.50;99.90;;;10.36;52.16;98260.72;4958165;28;97119;-55
2023/01/17 04:25:39;;;;;;;1.17;0.90;;;10.60;99.90;;;10.51;53.46;98263.19;4947663;28;97294;-56
2023/01/17 04:28:05;;;;;;;1.23;0.80;;;10.70;99.90;;;10.43;53.06;98267.22;4960508;28;97368;-55
2023/01/17 04:30:32;;;;;;;0.80;0.60;;;10.60;99.90;;;10.39;51.44;98271.00;4933041;28;116301;-57
2023/01/17 04:32:58;;;;;;;0.33;0.33;;;10.60;99.90;;;10.20;47.82;98265.38;4934190;28;97755;-56
2023/01/17 04:35:24;;;;;;;0.97;0.73;;;10.60;99.90;;;9.96;51.93;98277.63;4933858;28;96563;-55
2023/01/17 04:37:50;;;;;;;2.37;0.53;;;10.30;99.90;;;10.13;54.77;98275.53;4950438;28;98604;-56
2023/01/17 04:40:17;;;;;;;0.70;0.60;;;10.20;99.90;;;10.05;49.23;98277.00;4934059;28;100092;-55
2023/01/17 04:42:46;;;;;;;3.43;0.80;;;10.30;99.90;;;10.12;53.76;98275.59;4946196;28;98881;-54
2023/01/17 04:45:13;;;;;;;1.40;0.83;;;10.30;99.90;;;10.27;53.85;98271.94;4940419;28;97462;-56
2023/01/17 04:47:39;;;;;;;0.67;0.60;;;10.50;99.90;;;10.46;53.21;98281.13;4933039;28;100075;-56
2023/01/17 04:50:07;;;;;;;1.43;0.90;;;10.70;99.90;;;10.56;48.38;98276.84;4941483;28;97450;-54
2023/01/17 04:52:33;;;;;;;2.47;0.70;;;10.90;99.90;;;10.57;47.22;98275.94;4934771;28;97279;-53
2023/01/17 04:54:59;;;;;;;0.77;0.60;;;11.00;99.90;;;10.52;51.06;98281.50;4936478;28;97036;-54
2023/01/17 04:57:25;;;;;;;4.03;0.50;;;10.80;99.90;;;10.76;52.40;98288.59;4936019;28;119176;-56
2023/01/17 04:59:52;;;;;;;2.77;0.50;;;11.00;99.90;;;10.72;51.58;98278.28;4937477;28;97602;-59
2023/01/17 05:02:18;;;;;;;0.77;0.60;;;11.00;99.90;;;10.42;49.06;98291.91;4942128;28;96503;-52
2023/01/17 05:04:44;;;;;;;5.17;0.83;;;10.90;99.90;;;10.00;49.61;98287.03;4939094;28;97155;-54
2023/01/17 05:07:10;;;;;;;0.60;0.50;;;10.50;99.90;;;10.43;55.82;98288.31;4947574;28;104513;-56
2023/01/17 05:09:36;;;;;;;0.83;0.50;;;10.70;99.90;;;10.63;53.07;98296.56;4948040;28;110222;-55
2023/01/17 05:12:02;;;;;;;1.37;0.93;;;11.00;99.90;;;10.26;48.51;98296.56;4944522;28;97138;-56
2023/01/17 05:14:27;;;;;;;2.00;1.20;;;10.80;99.90;;;10.04;48.04;98293.75;4939686;28;97261;-55
2023/01/17 05:16:54;;;;;;;2.97;0.87;;;10.40;99.90;;;9.84;48.72;98289.91;4940494;28;97313;-55
2023/01/17 05:19:22;;;;;;;1.10;1.00;;;10.20;99.90;;;9.63;51.40;98288.75;4947083;28;99054;-54
2023/01/17 05:21:47;;;;;;;1.43;0.93;;;9.80;99.90;;;9.72;53.67;98288.97;4941805;28;96948;-56
2023/01/17 05:24:14;;;;;;;2.50;0.80;;;9.80;99.90;;;10.03;52.15;98278.91;4941458;28;97423;-54
2023/01/17 05:26:41;;;;;;;1.13;0.90;;;10.20;99.90;;;10.01;55.79;98281.66;4929918;28;97456;-55
2023/01/17 05:29:10;;;;;;;1.30;0.90;;;10.20;99.90;;;10.21;54.32;98280.25;4937066;28;97632;-54
2023/01/17 05:31:37;;;;;;;2.73;0.90;;;10.40;99.90;;;10.48;54.53;98287.13;4932699;28;97379;-55
2023/01/17 05:34:03;;;;;;;6.03;0.90;;;10.70;99.90;;;10.43;51.20;98285.69;4924949;28;102355;-55
2023/01/17 05:36:29;;;;;;;1.50;0.80;;;10.70;99.90;;;10.41;50.73;98290.22;4938086;28;115810;-55
2023/01/17 05:38:54;;;;;;;0.83;0.80;;;10.60;99.90;;;10.60;53.82;98284.44;4931855;28;109091;-55
2023/01/17 05:41:21;;;;;;;1.73;0.87;;;10.60;99.90;;;10.58;52.18;98290.78;4937352;28;98099;-56
2023/01/17 05:43:47;;;;;;;0.70;0.60;;;10.60;99.90;;;10.70;54.70;98290.72;4940017;28;98984;-55
2023/01/17 05:46:14;;;;;;;1.93;0.80;;;10.60;99.90;;;10.57;48.67;98294.38;4932408;28;115826;-56
2023/01/17 05:48:40;;;;;;;1.70;0.90;;;10.70;99.90;;;10.47;52.34;98294.19;4934870;28;97280;-55
2023/01/17 05:51:06;;;;;;;2.80;0.80;;;10.40;99.90;;;10.65;54.64;98302.56;4919828;28;97761;-54
2023/01/17 05:53:32;;;;;;;4.20;0.87;;;10.50;99.90;;;10.67;49.08;98298.00;4943102;28;96894;-55
2023/01/17 05:55:58;;;;;;;2.47;0.70;;;10.70;99.90;;;10.70;53.93;98305.69;4940883;28;98315;-55
2023/01/17 05:58:24;;;;;;;1.50;0.63;;;10.70;99.90;;;10.69;51.12;98309.28;4937088;28;97540;-55
2023/01/17 06:00:50;;;;;;;1.77;1.10;;;10.60;99.90;;;10.69;51.41;98301.38;4937263;28;96977;-57
2023/01/17 06:03:16;;;;;;;2.20;0.83;;;10.70;99.90;;;10.67;45.88;98300.63;4941141;28;97312;-55
2023/01/17 06:05:43;;;;;;;0.93;0.87;;;10.80;99.90;;;11.03;54.68;98312.91;4945576;28;98125;-56
2023/01/17 06:08:09;;;;;;;1.87;1.10;;;10.90;99.90;;;10.83;49.39;98303.81;4944744;28;97528;-56
2023/01/17 06:10:35;;;;;;;2.40;1.13;;;10.70;99.90;;;10.88;53.89;98314.06;4940495;28;97310;-56
2023/01/17 06:13:07;;;;;;;2.00;0.83;;;10.60;99.90;;;10.65;48.10;98313.09;4941640;28;97168;-56
2023/01/17 06:15:37;;;;;;;3.33;1.50;;;10.50;99.90;;;10.58;47.19;98317.16;4936985;28;96973;-56
2023/01/17 06:18:12;;;;;;;1.63;1.00;;;10.30;99.90;;;10.59;53.56;98318.81;4939880;28;97141;-55
2023/01/17 06:20:39;;;;;;;2.50;1.43;;;10.10;99.90;;;10.69;52.86;98333.00;4944767;28;97012;-56
2023/01/17 06:23:09;;;;;;;2.97;1.10;;;10.10;99.90;;;10.86;51.14;98326.53;4937529;28;97058;-56
2023/01/17 06:25:44;;;;;;;2.47;1.30;;;10.40;99.90;;;10.28;47.89;98321.03;4940763;28;98957;-55
2023/01/17 06:28:17;;;;;;;5.03;0.93;;;9.80;99.90;;;10.07;51.07;98318.06;4935563;28;98733;-57
2023/01/17 06:30:42;;;;;;;2.33;1.17;;;9.50;99.90;;;9.92;55.55;98334.09;4951578;28;96937;-56
2023/01/17 06:33:09;;;;;;;2.30;1.37;;;9.20;99.90;;;9.91;56.00;98337.69;4951145;28;97058;-57
2023/01/17 06:35:37;;;;;;;1.93;1.00;;;9.10;99.90;;;9.83;53.46;98339.06;4944270;28;97677;-57
2023/01/17 06:38:03;;;;;;;1.13;1.03;;;9.10;99.90;;;10.02;51.13;98340.44;4940577;28;97654;-56
2023/01/17 06:40:29;;;;;;;2.30;1.33;;;9.40;99.90;;;10.16;55.41;98332.41;4942806;28;96919;-57
2023/01/17 06:43:00;;;;;;;5.70;1.47;;;9.50;99.90;;;9.92;49.11;98342.00;4946969;28;97233;-56
2023/01/17 06:45:28;;;;;;;0.83;0.80;;;9.40;99.90;;;9.94;55.68;98342.75;4937413;28;98276;-56
2023/01/17 06:47:54;;;;;;;1.10;1.00;;;9.20;99.90;;;9.90;48.89;98336.00;4939057;28;97573;-56
2023/01/17 06:50:20;;;;;;;1.90;1.03;;;9.20;99.90;;;10.14;53.51;98339.56;4933645;28;96889;-57
2023/01/17 06:52:55;;;;;;;0.73;0.73;;;9.40;99.90;;;10.01;55.10;98341.38;4940763;28;97324;-56
2023/01/17 06:55:22;;;;;;;2.90;1.27;;;9.30;99.90;;;9.96;50.90;98343.47;4927708;28;103554;-55
2023/01/17 06:57:48;;;;;;;2.37;1.03;;;9.20;99.90;;;9.73;48.05;98350.34;4945355;28;99188;-57
2023/01/17 07:00:15;;;;;;;1.60;1.17;;;9.10;99.90;;;9.86;56.21;98345.06;4938501;28;97257;-55
2023/01/17 07:02:41;;;;;;;1.03;0.90;;;9.10;99.90;;;9.46;48.33;98350.41;4945115;28;98026;-56
2023/01/17 07:05:09;;;;;;;2.67;1.07;;;9.00;99.90;;;9.39;49.00;98351.75;4934340;28;126719;-54
2023/01/17 07:07:34;;;;;;;4.50;1.30;;;9.00;99.90;;;9.35;49.66;98355.56;4941865;28;98194;-56
2023/01/17 07:10:02;;;;;;;5.17;1.40;;;8.90;99.90;;;9.60;56.21;98360.03;4948452;28;98379;-56
2023/01/17 07:12:28;;;;;;;3.93;1.87;;;9.00;99.90;;;9.43;56.93;98361.16;4942319;28;97427;-54
2023/01/17 07:14:54;;;;;;;2.20;1.10;;;8.90;99.90;;;9.71;53.81;98354.88;4930358;28;97662;-54
2023/01/17 07:17:19;;;;;;;2.20;1.60;;;9.30;99.90;;;9.76;52.45;98361.50;4931615;28;97313;-57
2023/01/17 07:19:45;;;;;;;1.67;1.33;;;9.30;99.90;;;9.81;54.96;98364.66;4939308;28;97871;-56
2023/01/17 07:22:11;;;;;;;3.87;1.80;;;9.10;99.90;;;9.57;49.07;98361.06;4931465;28;98603;-56
2023/01/17 07:24:36;;;;;;;2.40;1.37;;;9.00;99.90;;;9.39;52.46;98367.56;4933418;28;98983;-56
2023/01/17 07:27:03;;;;;;;1.90;1.37;;;8.70;99.90;;;9.20;52.83;98368.78;4929018;28;97303;-56
2023/01/17 07:29:29;;;;;;;2.37;1.33;;;8.50;99.90;;;9.47;56.78;98370.53;4935340;28;100083;-54
2023/01/17 07:31:54;;;;;;;2.80;1.40;;;8.60;99.90;;;9.20;49.90;98366.16;4932611;28;96930;-54
2023/01/17 07:34:20;;;;;;;1.90;1.37;;;8.50;99.90;;;9.27;51.65;98369.22;4936879;28;97825;-56
2023/01/17 07:36:48;;;;;;;1.70;1.37;;;8.60;99.90;;;9.12;52.71;98368.47;4928906;28;114746;-54
2023/01/17 07:39:15;;;;;;;4.03;1.47;;;8.40;99.90;;;8.98;53.18;98368.53;4922812;28;96524;-55
2023/01/17 07:41:41;;;;;;;3.07;1.40;;;8.30;99.90;;;8.68;50.45;98371.34;4926279;28;99518;-53
2023/01/17 07:44:09;;;;;;;1.87;1.53;;;8.10;99.90;;;8.66;54.91;98367.94;4922358;28;96590;-55
2023/01/17 07:46:35;;;;;;;3.83;1.83;;;8.10;99.90;;;8.52;52.25;98370.59;4925768;28;97202;-56
2023/01/17 07:49:01;;;;;;;2.23;1.37;;;8.00;99.90;;;8.54;55.49;98366.97;4917929;28;113154;-55
2023/01/17 07:51:28;;;;;;;6.00;1.30;;;8.00;99.90;;;8.29;53.05;98365.00;4921712;28;97300;-52
2023/01/17 07:53:54;;;;;;;1.53;1.43;;;7.80;99.90;;;8.29;58.16;98361.53;4917680;28;97959;-55
2023/01/17 07:56:19;;;;;;;1.40;1.10;;;7.70;99.90;;;8.20;54.88;98364.72;4925589;28;97329;-54
2023/01/17 07:58:47;;;;;;;5.20;1.10;;;7.70;99.90;;;8.17;55.37;98367.53;4934641;28;97126;-55
2023/01/17 08:01:14;;;;;;;1.67;0.93;;;7.70;99.90;;;8.10;54.72;98366.22;4926503;28;97633;-56
2023/01/17 08:03:40;;;;;;;2.30;1.40;;;7.60;99.90;;;8.12;55.51;98364.38;4934562;28;98041;-55
2023/01/17 08:06:15;;;;;;;5.67;1.30;;;7.60;99.90;;;8.07;56.51;98365.47;4927602;28;97064;-56
2023/01/17 08:08:41;;;;;;;2.20;1.73;;;7.60;99.90;;;8.15;58.44;98362.38;4927795;28;97145;-54
2023/01/17 08:11:06;;;;;;;2.27;1.60;;;7.60;99.90;;;8.04;55.82;98365.66;4931437;28;97382;-54
2023/01/17 08:13:32;;;;;;;2.93;1.27;;;7.60;99.90;;;8.01;55.96;98360.59;4931021;28;106053;-52
2023/01/17 08:16:01;;;;;;;1.20;0.80;;;7.60;99.90;;;8.03;56.99;98358.72;4931262;28;111647;-57
2023/01/17 08:18:27;;;;;;;1.97;1.43;;;7.60;99.90;;;8.03;56.74;98355.25;4936842;28;96917;-56
2023/01/17 08:20:53;;;;;;;3.83;1.50;;;7.60;99.90;;;7.94;54.74;98358.44;4931337;28;97117;-55
2023/01/17 08:23:20;;;;;;;3.13;1.53;;;7.50;99.90;;;7.90;55.68;98357.78;4934676;28;97550;-56
2023/01/17 08:25:45;;;;;;;4.30;1.57;;;7.50;99.90;;;7.87;56.73;98363.22;4925054;28;96593;-53
2023/01/17 08:28:11;;;;;;;2.03;1.10;;;7.40;99.90;;;8.12;58.40;98367.00;4930669;28;97040;-56
2023/01/17 08:30:38;;;;;;;1.67;1.27;;;7.60;99.90;;;7.99;55.64;98367.75;4930879;28;97086;-56
2023/01/17 08:33:04;;;;;;;2.40;1.43;;;7.60;99.90;;;7.88;54.78;98364.06;4937177;28;97717;-53
2023/01/17 08:35:30;;;;;;;2.20;1.30;;;7.50;99.90;;;7.73;54.93;98371.09;4934134;28;96691;-55
2023/01/17 08:37:56;;;;;;;2.70;0.93;;;7.30;99.90;;;7.67;56.13;98377.56;4934286;28;97945;-55
2023/01/17 08:40:23;;;;;;;2.53;1.37;;;7.20;99.90;;;7.64;57.40;98376.88;4931296;28;97035;-56
2023/01/17 08:42:59;;;;;;;3.53;1.30;;;7.20;99.90;;;7.66;57.61;98380.25;4934546;28;97261;-52
2023/01/17 08:45:26;;;;;;;2.83;1.23;;;7.20;99.90;;;7.74;56.98;98372.78;4931606;28;99925;-55
2023/01/17 08:47:52;;;;;;;2.47;1.50;;;7.30;99.90;;;7.66;56.77;98356.63;4934971;28;97163;-60
2023/01/17 08:50:23;;;;;;;3.07;1.80;;;7.20;99.90;;;7.58;56.57;98372.00;4943019;28;97367;-53
2023/01/17 08:52:49;;;;;;;3.13;1.37;;;7.10;99.90;;;7.60;58.01;98368.34;4931445;28;97556;-54
2023/01/17 08:55:16;;;;;;;1.53;1.30;;;7.10;99.90;;;7.54;58.13;98373.13;4915870;28;97574;-56
2023/01/17 08:57:42;;;;;;;2.80;1.67;;;7.10;99.90;;;7.51;56.39;98370.66;4909647;28;98659;-56
2023/01/17 09:00:09;;;;;;;2.80;1.43;;;7.10;99.90;;;7.36;56.50;98373.25;4903876;28;98275;-55
2023/01/17 09:02:35;;;;;;;3.47;2.23;;;7.00;99.90;;;7.33;57.47;98378.69;4911323;28;97383;-54
2023/01/17 09:05:01;;;;;;;4.13;1.73;;;6.90;99.90;;;7.31;58.14;98380.56;4906589;28;97361;-54
2023/01/17 09:07:28;;;;;;;1.60;1.10;;;6.90;99.90;;;7.35;58.62;98384.69;4910658;28;99568;-54
2023/01/17 09:09:53;;;;;;;2.27;1.30;;;7.00;99.90;;;7.38;58.16;98381.06;4910255;28;97459;-54
2023/01/17 09:12:21;;;;;;;2.83;1.77;;;7.10;99.90;;;7.51;58.21;98386.41;4905475;28;98918;-56
2023/01/17 09:14:47;;;;;;;1.97;1.20;;;7.20;99.90;;;7.52;58.46;98395.97;4909052;28;97522;-55
2023/01/17 09:17:14;;;;;;;6.30;1.63;;;7.20;99.90;;;7.55;57.75;98393.19;4907617;28;97688;-52
2023/01/17 09:19:43;;;;;;;2.53;1.53;;;7.30;99.90;;;7.55;57.81;98388.78;4909937;28;96971;-54
2023/01/17 09:22:11;;;;;;;3.47;1.73;;;7.30;99.90;;;7.62;56.78;98389.25;4922443;28;98806;-55
2023/01/17 09:24:37;;;;;;;1.57;1.20;;;7.30;99.90;;;7.65;57.83;98383.81;4927830;28;97753;-56
2023/01/17 09:27:03;;;;;;;5.43;2.43;;;7.40;99.90;;;7.66;57.10;98388.13;4925146;28;99054;-56
2023/01/17 09:29:29;;;;;;;1.57;1.00;;;7.40;99.90;;;7.94;61.63;98385.53;4926934;28;97384;-55
2023/01/17 09:31:55;;;;;;;2.33;1.27;;;7.50;99.90;;;7.21;56.66;98392.50;4929145;28;99364;-59
2023/01/17 09:34:23;;;;;;;1.83;0.93;;;7.10;99.90;;;7.50;56.34;98390.81;4912994;28;101634;-57
2023/01/17 09:36:49;;;;;;;6.17;1.47;;;7.20;99.90;;;7.53;56.22;98392.44;4927996;28;98600;-56
2023/01/17 09:39:15;;;;;;;1.83;1.17;;;7.30;99.90;;;7.58;56.20;98393.00;4926574;28;97361;-56
2023/01/17 09:41:59;;;;;;;4.13;1.03;;;7.40;99.90;;;7.87;59.68;98383.38;4929816;28;97553;-55
2023/01/17 09:44:46;;;;;;;2.73;1.40;;;7.50;99.90;;;7.76;53.58;98391.91;4924257;28;99856;-56
2023/01/17 09:47:34;;;;;;;1.63;1.13;;;7.60;99.90;;;7.78;54.67;98411.00;4908503;28;97548;-57
2023/01/17 09:50:14;;;;;;;1.57;0.97;;;7.60;99.90;;;7.80;55.05;98395.16;4907364;28;99602;-58
2023/01/17 09:52:40;;;;;;;4.03;1.30;;;7.70;99.90;;;7.84;54.84;98389.66;4911501;28;97215;-55
2023/01/17 09:55:12;;;;;;;1.00;0.97;;;7.70;99.90;;;7.85;54.42;98396.59;4897482;28;98409;-57
2023/01/17 09:58:02;;;;;;;2.23;1.10;;;7.70;99.90;;;7.90;53.78;98402.41;4916196;28;97344;-57
2023/01/17 10:00:59;;;;;;;1.57;1.13;;;7.80;99.90;;;8.06;54.90;98403.16;4907375;28;99622;-57
2023/01/17 10:04:01;;;;;;;3.20;1.63;;;7.80;99.90;;;8.64;60.63;98409.25;4907901;28;102001;-56
2023/01/17 10:06:49;;;;;;;6.10;0.97;;;8.20;99.90;;;8.48;52.20;98406.75;4885585;28;102664;-55
2023/01/17 10:09:19;;;;;;;0.90;0.50;;;8.20;99.90;;;9.00;61.06;98408.69;4910232;28;96950;-57
2023/01/17 10:12:09;;;;;;;1.47;0.90;;;8.50;99.90;;;9.62;59.27;98401.06;4918502;28;97148;-57
2023/01/17 10:14:48;;;;;;;0.53;0.40;;;9.30;99.90;;;10.18;57.73;98408.69;4911110;28;101207;-56
2023/01/17 10:17:35;;;;;;;4.53;1.60;;;10.00;99.90;;;10.37;47.95;98404.69;4912539;28;97567;-57
2023/01/17 10:20:49;;;;;;;2.77;1.63;;;10.20;99.90;;;10.09;47.56;98404.88;4911354;28;96929;-57
2023/01/17 10:23:52;;;;;;;1.83;1.40;;;9.80;99.90;;;9.88;48.37;98412.47;4910552;28;97670;-57
2023/01/17 10:26:23;;;;;;;1.33;0.90;;;9.60;99.90;;;9.84;54.06;98401.31;4912542;28;98731;-57
2023/01/17 10:28:53;;;;;;;2.23;1.30;;;9.40;99.90;;;10.00;56.14;98401.13;4915134;28;97885;-56
2023/01/17 10:31:27;;;;;;;2.20;1.40;;;9.50;99.90;;;9.66;50.72;98407.81;4908730;28;97442;-57
2023/01/17 10:34:07;;;;;;;1.87;0.77;;;9.30;99.90;;;9.46;48.97;98405.69;4910899;28;97000;-56
2023/01/17 10:36:44;;;;;;;2.23;1.20;;;9.10;99.90;;;9.54;48.37;98409.47;4909446;28;105179;-57
2023/01/17 10:39:21;;;;;;;1.67;1.17;;;9.10;99.90;;;9.60;51.16;98402.97;4896701;28;97047;-57
2023/01/17 10:42:13;;;;;;;5.83;1.77;;;9.10;99.90;;;9.27;48.30;98408.69;4931445;28;96836;-56
2023/01/17 10:45:00;;;;;;;12.43;1.50;;;8.90;99.90;;;9.27;56.06;98405.22;4925861;28;97356;-57
2023/01/17 10:47:32;;;;;;;3.53;1.50;;;8.80;99.90;;;9.13;50.55;98403.50;4921253;28;100324;-56
2023/01/17 10:49:58;;;;;;;2.77;1.53;;;8.80;99.90;;;9.23;54.46;98405.41;4913877;28;98647;-56
2023/01/17 10:52:26;;;;;;;1.40;1.17;;;8.80;99.90;;;9.60;57.36;98397.72;4940109;28;97929;-57
2023/01/17 10:55:42;;;;;;;4.20;1.80;;;9.10;99.90;;;9.60;48.70;98397.72;4931394;28;97614;-60
2023/01/17 10:58:11;;;;;;;3.90;1.13;;;9.20;99.90;;;9.24;48.53;98393.94;4933762;28;100414;-57
2023/01/17 11:00:59;;;;;;;4.23;1.40;;;9.00;99.90;;;9.30;56.92;98400.59;4916840;28;97483;-57
2023/01/17 11:03:26;;;;;;;2.47;1.07;;;8.80;99.90;;;9.67;57.16;98398.13;4919305;28;97162;-60
2023/01/17 11:06:14;;;;;;;4.37;1.60;;;9.20;99.90;;;9.92;54.27;98394.66;4930114;28;98048;-57
2023/01/17 11:08:57;;;;;;;1.37;1.07;;;9.40;99.90;;;9.69;48.35;98393.59;4931815;28;98609;-56
2023/01/17 11:11:29;;;;;;;2.30;1.03;;;9.30;99.90;;;9.27;50.06;98394.69;4918164;28;98554;-56
2023/01/17 11:13:59;;;;;;;2.37;1.50;;;9.00;99.90;;;9.14;49.31;98389.41;4915152;28;97298;-55
2023/01/17 11:16:30;;;;;;;1.20;1.10;;;8.80;99.90;;;9.01;51.77;98391.13;4933883;28;97533;-58
2023/01/17 11:19:35;;;;;;;4.77;1.57;;;8.70;99.90;;;9.17;50.55;98391.81;4931768;28;97570;-56
2023/01/17 11:22:05;;;;;;;3.50;1.90;;;8.80;99.90;;;9.04;49.72;98383.88;4904225;28;102807;-56
2023/01/17 11:24:47;;;;;;;3.73;1.53;;;8.70;99.90;;;9.02;51.79;98375.25;4917731;28;97538;-56
2023/01/17 11:27:30;;;;;;;3.30;1.23;;;8.70;99.90;;;8.96;52.77;98380.91;4916320;28;101076;-54
2023/01/17 11:30:15;;;;;;;2.37;1.13;;;8.60;99.90;;;9.11;55.17;98374.66;4914215;28;100339;-55
2023/01/17 11:32:56;;;;;;;3.53;1.40;;;8.70;99.90;;;9.06;54.12;98371.47;4922759;28;98985;-56
2023/01/17 11:35:28;;;;;;;1.47;1.03;;;8.70;99.90;;;9.42;56.55;98378.75;4933360;28;96828;-55
2023/01/17 11:38:13;;;;;;;1.83;1.23;;;8.90;99.90;;;9.42;53.40;98370.84;4931297;28;97191;-56
2023/01/17 11:40:45;;;;;;;1.57;0.90;;;8.90;99.90;;;9.56;55.95;98363.81;4931809;28;97372;-56
2023/01/17 11:43:10;;;;;;;1.97;1.27;;;9.00;99.90;;;9.67;53.97;98362.09;4935356;28;97794;-56
2023/01/17 11:45:38;;;;;;;1.67;1.47;;;9.10;99.90;;;9.56;51.15;98359.38;4917024;28;98694;-55
2023/01/17 11:48:07;;;;;;;3.83;1.43;;;9.10;99.90;;;9.43;52.01;98358.53;4914387;28;97196;-56
2023/01/17 11:50:36;;;;;;;1.67;0.93;;;9.00;99.90;;;9.37;50.74;98354.50;4915238;28;103716;-55
2023/01/17 11:53:20;;;;;;;1.63;1.20;;;8.90;99.90;;;9.32;51.63;98350.50;4912859;28;100289;-55
2023/01/17 11:56:07;;;;;;;1.47;1.00;;;8.90;99.90;;;9.21;49.93;98349.44;4913082;28;98502;-55
2023/01/17 11:58:38;;;;;;;2.30;1.20;;;8.90;99.90;;;9.16;50.85;98351.53;4912180;28;99836;-57
2023/01/17 12:01:43;;;;;;;0.90;0.67;;;8.80;99.90;;;9.26;53.87;98343.88;4910010;28;102449;-54
2023/01/17 12:04:41;;;;;;;2.23;1.33;;;8.90;99.90;;;9.12;50.42;98344.78;4930951;28;103005;-55
2023/01/17 12:07:44;;;;;;;0.83;0.60;;;8.80;99.90;;;9.07;50.50;98346.88;4930529;28;97634;-58